Weather at Billund Airport

Public forecast

Using degrees Celsius for public forecast. Weather courtesy of forecast.io.

Current aviation weather report (METAR) for Billund Airport

Retrieved 2020/09/19 22:20 UTC (0 seconds ago):

EKBI 192220Z 06001KT 0500 R09/0900N R27/0750N FG VV001 07/07 Q1023

Aviation forecast (TAF) for Billund Airport

Retrieved 2020/09/19 18:30 UTC (4 hours ago):

TAF EKBI 191712Z 1918/2018 VRB02KT CAVOK TEMPO 1919/1924 2000 BCFG BR BECMG 2000/2002 0100 FG VV001 TEMPO 2002/2008 3000 BR BKN003 BECMG 2008/2010 9999 NSW BKN003 BECMG 2010/2012 BKN012 BECMG 2012/2014 SCT012